Time;durP1;ratioP1;P1;durP2;ratioP2;P2;SDS_P1;SDS_P2;PMS_P1;PMS_P2;Temp;Humidity;BMP_temperature;BMP_pressure;BME280_temperature;BME280_humidity;BME280_pressure;Samples;Min_cycle;Max_cycle;Signal;HPM_P1;HPM_P2
2021/04/23 00:01:50;;;;;;;10.55;5.18;;;;;;;;;;5091002;28;20404;-54
2021/04/23 00:04:16;;;;;;;6.07;5.03;;;;;;;;;;5091024;28;20570;-55
2021/04/23 00:06:47;;;;;;;9.10;5.75;;;;;;;;;;5090510;28;20404;-55
2021/04/23 00:09:19;;;;;;;9.80;5.20;;;;;;;;;;5090889;28;20182;-55
2021/04/23 00:11:56;;;;;;;10.73;5.15;;;;;;;;;;5089703;28;20184;-54
2021/04/23 00:14:24;;;;;;;9.85;5.22;;;;;;;;;;5091557;28;20609;-54
2021/04/23 00:16:51;;;;;;;20.95;5.65;;;;;;;;;;5090609;28;20753;-54
2021/04/23 00:19:19;;;;;;;10.98;5.05;;;;;;;;;;5090763;28;20266;-55
2021/04/23 00:21:45;;;;;;;17.75;5.40;;;;;;;;;;5090792;28;20219;-54
2021/04/23 00:24:12;;;;;;;14.15;5.65;;;;;;;;;;5090872;28;20503;-55
2021/04/23 00:26:39;;;;;;;7.85;5.05;;;;;;;;;;5090536;28;20162;-54
2021/04/23 00:29:05;;;;;;;9.27;5.07;;;;;;;;;;5090812;28;20162;-54
2021/04/23 00:31:31;;;;;;;7.10;4.40;;;;;;;;;;5090883;28;20168;-54
2021/04/23 00:33:57;;;;;;;9.50;4.72;;;;;;;;;;5091160;28;20530;-55
2021/04/23 00:36:23;;;;;;;10.63;5.17;;;;;;;;;;5090708;28;20173;-54
2021/04/23 00:38:49;;;;;;;8.93;4.80;;;;;;;;;;5090509;28;20898;-54
2021/04/23 00:41:17;;;;;;;10.25;5.15;;;;;;;;;;5090737;28;20197;-54
2021/04/23 00:43:44;;;;;;;10.20;5.80;;;;;;;;;;5090466;28;20177;-54
2021/04/23 00:46:11;;;;;;;7.78;5.30;;;;;;;;;;5090318;28;20165;-55
2021/04/23 00:48:42;;;;;;;8.90;5.00;;;;;;;;;;5090370;28;20166;-56
2021/04/23 00:51:09;;;;;;;9.25;4.68;;;;;;;;;;5094113;28;20280;-54
2021/04/23 00:53:37;;;;;;;7.18;4.75;;;;;;;;;;5094702;28;20172;-53
2021/04/23 00:56:06;;;;;;;10.30;5.40;;;;;;;;;;5094152;28;20168;-55
2021/04/23 00:58:32;;;;;;;14.93;5.30;;;;;;;;;;5094099;28;20185;-54
2021/04/23 01:01:00;;;;;;;7.88;4.97;;;;;;;;;;5093850;28;20205;-54
2021/04/23 01:03:27;;;;;;;12.52;5.65;;;;;;;;;;5093646;28;20509;-54
2021/04/23 01:05:54;;;;;;;9.88;6.07;;;;;;;;;;5093224;28;20651;-55
2021/04/23 01:08:24;;;;;;;17.65;6.43;;;;;;;;;;5094074;28;20593;-54
2021/04/23 01:10:50;;;;;;;10.40;5.90;;;;;;;;;;5093754;28;20220;-53
2021/04/23 01:13:17;;;;;;;9.85;5.55;;;;;;;;;;5094054;28;20193;-54
2021/04/23 01:15:43;;;;;;;18.85;6.53;;;;;;;;;;5093492;28;20180;-53
2021/04/23 01:18:09;;;;;;;12.30;6.47;;;;;;;;;;5093899;28;20248;-53
2021/04/23 01:20:35;;;;;;;13.83;8.10;;;;;;;;;;5093517;28;20837;-55
2021/04/23 01:23:00;;;;;;;23.13;9.95;;;;;;;;;;5093863;28;20448;-54
2021/04/23 01:25:26;;;;;;;24.27;11.23;;;;;;;;;;5093546;28;20177;-56
2021/04/23 01:27:52;;;;;;;29.63;12.30;;;;;;;;;;5093586;28;20402;-54
2021/04/23 01:30:20;;;;;;;23.83;11.88;;;;;;;;;;5093619;28;20430;-54
2021/04/23 01:32:46;;;;;;;32.40;13.32;;;;;;;;;;5093488;28;20168;-54
2021/04/23 01:35:15;;;;;;;24.85;13.00;;;;;;;;;;5093197;28;20181;-54
2021/04/23 01:37:41;;;;;;;21.15;12.45;;;;;;;;;;5093508;28;20173;-53
2021/04/23 01:40:08;;;;;;;20.00;10.27;;;;;;;;;;5093533;28;20190;-55
2021/04/23 01:42:34;;;;;;;19.33;9.13;;;;;;;;;;5093344;28;20399;-54
2021/04/23 01:45:00;;;;;;;12.90;8.27;;;;;;;;;;5093244;28;20222;-54
2021/04/23 01:47:26;;;;;;;18.95;7.80;;;;;;;;;;5093126;28;20410;-53
2021/04/23 01:49:52;;;;;;;17.40;7.40;;;;;;;;;;5093208;28;20198;-54
2021/04/23 01:52:19;;;;;;;10.15;6.93;;;;;;;;;;5093094;28;20171;-53
2021/04/23 01:54:46;;;;;;;38.45;19.02;;;;;;;;;;5093347;28;20260;-54
2021/04/23 01:57:12;;;;;;;56.20;27.30;;;;;;;;;;5093207;28;20251;-54
2021/04/23 01:59:39;;;;;;;35.40;19.67;;;;;;;;;;5092907;28;20207;-55
2021/04/23 02:02:05;;;;;;;23.58;12.80;;;;;;;;;;5091782;28;20162;-54
2021/04/23 02:04:32;;;;;;;23.50;9.57;;;;;;;;;;5093023;28;20567;-54
2021/04/23 02:06:58;;;;;;;15.27;6.03;;;;;;;;;;5093059;28;20173;-54
2021/04/23 02:09:24;;;;;;;13.20;6.77;;;;;;;;;;5093035;28;20188;-55
2021/04/23 02:11:51;;;;;;;19.52;7.28;;;;;;;;;;5093197;28;20879;-55
2021/04/23 02:14:17;;;;;;;11.38;6.55;;;;;;;;;;5093189;28;20267;-55
2021/04/23 02:16:43;;;;;;;11.13;6.45;;;;;;;;;;5092496;28;20171;-52
2021/04/23 02:19:10;;;;;;;21.17;6.70;;;;;;;;;;5092659;28;20208;-53
2021/04/23 02:21:36;;;;;;;14.07;5.95;;;;;;;;;;5092620;28;20198;-54
2021/04/23 02:24:03;;;;;;;11.50;6.60;;;;;;;;;;5092723;28;20170;-54
2021/04/23 02:26:29;;;;;;;15.07;6.07;;;;;;;;;;5092240;28;20191;-54
2021/04/23 02:28:55;;;;;;;13.27;6.10;;;;;;;;;;5092544;28;20558;-55
2021/04/23 02:31:24;;;;;;;12.05;7.30;;;;;;;;;;5092226;28;20536;-54
2021/04/23 02:33:51;;;;;;;12.50;7.13;;;;;;;;;;5092372;28;20164;-54
2021/04/23 02:36:17;;;;;;;13.23;7.13;;;;;;;;;;5091930;28;20170;-54
2021/04/23 02:38:44;;;;;;;15.27;6.50;;;;;;;;;;5092659;28;20214;-54
2021/04/23 02:41:10;;;;;;;18.02;9.07;;;;;;;;;;5092084;28;20206;-55
2021/04/23 02:43:38;;;;;;;13.10;6.45;;;;;;;;;;5092323;28;20625;-55
2021/04/23 02:46:04;;;;;;;12.57;6.68;;;;;;;;;;5091813;28;20191;-53
2021/04/23 02:48:32;;;;;;;15.82;6.57;;;;;;;;;;5092561;28;20320;-55
2021/04/23 02:51:06;;;;;;;12.18;6.88;;;;;;;;;;5092070;28;20190;-54
2021/04/23 02:53:32;;;;;;;16.02;7.70;;;;;;;;;;5091977;28;20173;-54
2021/04/23 02:55:58;;;;;;;16.00;7.18;;;;;;;;;;5091834;28;20572;-53
2021/04/23 02:58:24;;;;;;;17.13;7.30;;;;;;;;;;5091611;28;20179;-53
2021/04/23 03:00:52;;;;;;;15.73;6.53;;;;;;;;;;5091824;28;20224;-53
2021/04/23 03:03:19;;;;;;;15.18;6.50;;;;;;;;;;5091801;28;20194;-55
2021/04/23 03:05:46;;;;;;;10.90;6.43;;;;;;;;;;5091648;28;20244;-54
2021/04/23 03:08:12;;;;;;;11.13;6.95;;;;;;;;;;5091735;28;20601;-53
2021/04/23 03:10:40;;;;;;;8.32;5.72;;;;;;;;;;5091726;28;20249;-55
2021/04/23 03:13:08;;;;;;;15.25;6.85;;;;;;;;;;5091131;28;20170;-54
2021/04/23 03:15:34;;;;;;;15.25;6.72;;;;;;;;;;5091422;28;20171;-55
2021/04/23 03:18:00;;;;;;;11.10;7.00;;;;;;;;;;5091750;28;20174;-54
2021/04/23 03:20:26;;;;;;;15.80;7.20;;;;;;;;;;5091271;28;20816;-55
2021/04/23 03:22:53;;;;;;;19.58;8.23;;;;;;;;;;5091499;28;20209;-55
2021/04/23 03:25:19;;;;;;;10.68;6.55;;;;;;;;;;5091103;28;20624;-54
2021/04/23 03:27:46;;;;;;;8.63;6.05;;;;;;;;;;5091374;28;20167;-55
2021/04/23 03:30:14;;;;;;;10.98;7.15;;;;;;;;;;5091302;28;20271;-54
2021/04/23 03:32:41;;;;;;;11.38;6.28;;;;;;;;;;5091358;28;20225;-54
2021/04/23 03:35:07;;;;;;;18.48;7.03;;;;;;;;;;5090952;28;20195;-55
2021/04/23 03:37:33;;;;;;;13.57;6.53;;;;;;;;;;5091354;28;20174;-54
2021/04/23 03:39:59;;;;;;;14.13;7.50;;;;;;;;;;5090943;28;20194;-54
2021/04/23 03:42:25;;;;;;;17.30;7.57;;;;;;;;;;5091149;28;20402;-54
2021/04/23 03:44:51;;;;;;;15.10;8.10;;;;;;;;;;5091199;28;20445;-53
2021/04/23 03:47:17;;;;;;;21.63;7.13;;;;;;;;;;5091157;28;20428;-54
2021/04/23 03:49:43;;;;;;;11.30;7.27;;;;;;;;;;5091073;28;20840;-54
2021/04/23 03:52:09;;;;;;;19.80;7.85;;;;;;;;;;5090969;28;20411;-54
2021/04/23 03:54:37;;;;;;;13.90;7.15;;;;;;;;;;5090962;28;20170;-54
2021/04/23 03:57:03;;;;;;;14.43;7.18;;;;;;;;;;5090836;28;20162;-54
2021/04/23 03:59:29;;;;;;;12.10;6.20;;;;;;;;;;5090876;28;20197;-54
2021/04/23 04:01:55;;;;;;;12.90;7.50;;;;;;;;;;5090876;28;20166;-55
2021/04/23 04:04:21;;;;;;;15.67;7.73;;;;;;;;;;5091035;28;20427;-54
2021/04/23 04:06:47;;;;;;;12.70;6.80;;;;;;;;;;5090587;28;20404;-54
2021/04/23 04:09:13;;;;;;;14.00;8.02;;;;;;;;;;5090797;28;20423;-54
2021/04/23 04:11:39;;;;;;;20.33;7.65;;;;;;;;;;5091037;28;20174;-55
2021/04/23 04:14:05;;;;;;;18.97;6.87;;;;;;;;;;5090939;28;20653;-55
2021/04/23 04:16:31;;;;;;;17.67;7.90;;;;;;;;;;5090575;28;20490;-54
2021/04/23 04:18:57;;;;;;;10.97;6.73;;;;;;;;;;5090635;28;20408;-54
2021/04/23 04:21:23;;;;;;;12.00;6.20;;;;;;;;;;5090742;28;20543;-55
2021/04/23 04:23:49;;;;;;;18.23;7.88;;;;;;;;;;5090486;28;20461;-55
2021/04/23 04:26:15;;;;;;;16.20;8.20;;;;;;;;;;5094599;28;20169;-54
2021/04/23 04:28:41;;;;;;;12.23;7.47;;;;;;;;;;5094719;28;20161;-53
2021/04/23 04:31:07;;;;;;;17.52;7.82;;;;;;;;;;5094805;28;20270;-54
2021/04/23 04:33:33;;;;;;;16.10;7.60;;;;;;;;;;5094600;28;20633;-54
2021/04/23 04:35:58;;;;;;;16.13;7.37;;;;;;;;;;5094530;28;20766;-54
2021/04/23 04:38:25;;;;;;;11.97;6.90;;;;;;;;;;5094477;28;20411;-54
2021/04/23 04:40:51;;;;;;;14.55;7.40;;;;;;;;;;5094565;28;20458;-54
2021/04/23 04:43:18;;;;;;;14.48;7.68;;;;;;;;;;5094581;28;20653;-55
2021/04/23 04:45:44;;;;;;;13.38;7.53;;;;;;;;;;5094075;28;20223;-54
2021/04/23 04:48:11;;;;;;;12.95;6.90;;;;;;;;;;5094907;28;20240;-55
2021/04/23 04:50:47;;;;;;;14.55;8.23;;;;;;;;;;5094225;28;20185;-54
2021/04/23 04:53:14;;;;;;;31.67;7.90;;;;;;;;;;5094657;28;20827;-54
2021/04/23 04:55:41;;;;;;;16.20;7.18;;;;;;;;;;5094141;28;20178;-54
2021/04/23 04:58:08;;;;;;;12.85;7.32;;;;;;;;;;5094317;28;20648;-53
2021/04/23 05:00:35;;;;;;;17.70;8.82;;;;;;;;;;5093918;28;20206;-55
2021/04/23 05:03:01;;;;;;;19.35;8.80;;;;;;;;;;5094211;28;20249;-54
2021/04/23 05:05:28;;;;;;;17.33;8.43;;;;;;;;;;5093732;28;20519;-54
2021/04/23 05:07:54;;;;;;;15.65;8.52;;;;;;;;;;5094126;28;20576;-55
2021/04/23 05:10:21;;;;;;;18.75;8.55;;;;;;;;;;5093865;28;20686;-53
2021/04/23 05:12:47;;;;;;;14.52;8.25;;;;;;;;;;5094064;28;20672;-55
2021/04/23 05:15:14;;;;;;;17.02;9.60;;;;;;;;;;5093805;28;20252;-54
2021/04/23 05:17:40;;;;;;;18.65;8.48;;;;;;;;;;5093939;28;20236;-54
2021/04/23 05:20:07;;;;;;;11.70;8.47;;;;;;;;;;5093717;28;20206;-55
2021/04/23 05:22:34;;;;;;;12.00;8.15;;;;;;;;;;5093624;28;20937;-54
2021/04/23 05:25:00;;;;;;;14.05;8.10;;;;;;;;;;5093617;28;20169;-54
2021/04/23 05:27:26;;;;;;;16.42;8.55;;;;;;;;;;5093709;28;20208;-54
2021/04/23 05:29:52;;;;;;;15.57;8.35;;;;;;;;;;5093666;28;20193;-54
2021/04/23 05:32:20;;;;;;;30.10;10.15;;;;;;;;;;5093444;28;20176;-54
2021/04/23 05:34:46;;;;;;;19.73;8.48;;;;;;;;;;5093279;28;20660;-55
2021/04/23 05:37:12;;;;;;;15.93;8.15;;;;;;;;;;5093191;28;20182;-54
2021/04/23 05:39:42;;;;;;;15.20;8.83;;;;;;;;;;5093381;28;20185;-54
2021/04/23 05:42:08;;;;;;;21.63;10.13;;;;;;;;;;5093459;28;20907;-54
2021/04/23 05:44:33;;;;;;;26.73;9.50;;;;;;;;;;5093339;28;20166;-53
2021/04/23 05:46:59;;;;;;;14.50;8.30;;;;;;;;;;5093439;28;20399;-54
2021/04/23 05:49:25;;;;;;;22.20;9.40;;;;;;;;;;5093025;28;20512;-54
2021/04/23 05:51:51;;;;;;;23.17;10.30;;;;;;;;;;5093344;28;20753;-54
2021/04/23 05:54:17;;;;;;;20.27;10.93;;;;;;;;;;5093120;28;20434;-55
2021/04/23 05:56:44;;;;;;;20.63;9.17;;;;;;;;;;5093035;28;20161;-54
2021/04/23 05:59:10;;;;;;;19.83;10.73;;;;;;;;;;5092871;28;20868;-54
2021/04/23 06:01:36;;;;;;;16.63;8.30;;;;;;;;;;5092587;28;20253;-54
2021/04/23 06:04:02;;;;;;;18.83;8.93;;;;;;;;;;5092300;28;20859;-54
2021/04/23 06:06:28;;;;;;;21.67;9.32;;;;;;;;;;5092358;28;20430;-53
2021/04/23 06:08:54;;;;;;;21.10;10.33;;;;;;;;;;5092245;28;20170;-54
2021/04/23 06:11:21;;;;;;;17.13;10.07;;;;;;;;;;5092362;28;20412;-54
2021/04/23 06:13:47;;;;;;;19.58;8.70;;;;;;;;;;5092274;28;20794;-55
2021/04/23 06:16:13;;;;;;;15.10;8.77;;;;;;;;;;5093631;28;20182;-54
2021/04/23 06:18:41;;;;;;;18.10;9.18;;;;;;;;;;5092874;28;20408;-54
2021/04/23 06:21:07;;;;;;;19.83;9.57;;;;;;;;;;5092443;28;20679;-54
2021/04/23 06:23:34;;;;;;;20.00;8.98;;;;;;;;;;5092923;28;20165;-54
2021/04/23 06:26:00;;;;;;;17.85;9.45;;;;;;;;;;5092893;28;20168;-54
2021/04/23 06:28:26;;;;;;;18.08;9.10;;;;;;;;;;5092973;28;20215;-54
2021/04/23 06:30:52;;;;;;;20.87;9.33;;;;;;;;;;5092532;28;20194;-54
2021/04/23 06:33:20;;;;;;;15.60;8.80;;;;;;;;;;5092472;28;20479;-54
2021/04/23 06:35:47;;;;;;;15.32;8.80;;;;;;;;;;5092079;28;20189;-55
2021/04/23 06:38:13;;;;;;;23.00;9.38;;;;;;;;;;5092388;28;20165;-54
2021/04/23 06:40:39;;;;;;;16.60;7.70;;;;;;;;;;5092229;28;20276;-54
2021/04/23 06:43:06;;;;;;;26.05;9.23;;;;;;;;;;5092224;28;20172;-54
2021/04/23 06:45:32;;;;;;;15.88;8.15;;;;;;;;;;5092049;28;20443;-54
2021/04/23 06:47:59;;;;;;;11.85;6.82;;;;;;;;;;5091352;28;20165;-54
2021/04/23 06:50:25;;;;;;;14.50;7.88;;;;;;;;;;5091987;28;20276;-54
2021/04/23 06:52:53;;;;;;;12.73;7.40;;;;;;;;;;5092346;28;20675;-55
2021/04/23 06:55:20;;;;;;;12.27;7.60;;;;;;;;;;5091891;28;20626;-55
2021/04/23 06:57:47;;;;;;;20.20;8.68;;;;;;;;;;5091885;28;20173;-54
2021/04/23 07:00:18;;;;;;;12.00;6.93;;;;;;;;;;5091655;28;20744;-54
2021/04/23 07:02:44;;;;;;;14.83;7.97;;;;;;;;;;5091844;28;20428;-54
2021/04/23 07:05:11;;;;;;;13.83;7.13;;;;;;;;;;5091590;28;20493;-54
2021/04/23 07:07:37;;;;;;;10.63;6.00;;;;;;;;;;5091839;28;20428;-54
2021/04/23 07:10:05;;;;;;;18.80;7.13;;;;;;;;;;5091646;28;20800;-54
2021/04/23 07:12:31;;;;;;;11.70;7.13;;;;;;;;;;5091767;28;20712;-54
2021/04/23 07:14:57;;;;;;;19.50;6.33;;;;;;;;;;5091379;28;20417;-54
2021/04/23 07:17:22;;;;;;;8.70;4.80;;;;;;;;;;5091558;28;20893;-54
2021/04/23 07:19:48;;;;;;;16.97;3.87;;;;;;;;;;5091283;28;20468;-55
2021/04/23 07:22:17;;;;;;;10.97;4.53;;;;;;;;;;5091453;28;20394;-54
2021/04/23 07:24:44;;;;;;;10.10;4.97;;;;;;;;;;5091493;28;20875;-55
2021/04/23 07:27:10;;;;;;;9.87;4.60;;;;;;;;;;5091134;28;20407;-54
2021/04/23 07:29:36;;;;;;;7.27;4.23;;;;;;;;;;5091232;28;20423;-54
2021/04/23 07:32:03;;;;;;;5.47;3.50;;;;;;;;;;5091539;28;20431;-54
2021/04/23 07:34:29;;;;;;;7.13;3.50;;;;;;;;;;5091242;28;20887;-55
2021/04/23 07:36:54;;;;;;;7.80;4.30;;;;;;;;;;5091088;28;20412;-55
2021/04/23 07:39:26;;;;;;;9.20;3.40;;;;;;;;;;5091117;28;20792;-55
2021/04/23 07:41:53;;;;;;;3.53;3.23;;;;;;;;;;5091253;28;20430;-55
2021/04/23 07:44:19;;;;;;;5.77;3.57;;;;;;;;;;5091248;28;20403;-55
2021/04/23 07:46:45;;;;;;;5.77;3.70;;;;;;;;;;5091123;28;20396;-55
2021/04/23 07:49:11;;;;;;;7.00;3.70;;;;;;;;;;5090999;28;20414;-55
2021/04/23 07:51:37;;;;;;;6.90;4.40;;;;;;;;;;5091053;28;20440;-55
2021/04/23 07:54:03;;;;;;;6.00;4.40;;;;;;;;;;5091167;28;20490;-55
2021/04/23 07:56:29;;;;;;;5.17;3.90;;;;;;;;;;5090604;28;20396;-55
2021/04/23 07:58:55;;;;;;;7.00;3.93;;;;;;;;;;5090801;28;20608;-55
2021/04/23 08:01:21;;;;;;;8.70;5.43;;;;;;;;;;5090719;28;20466;-55
2021/04/23 08:03:47;;;;;;;6.43;4.40;;;;;;;;;;5090841;28;20395;-55
2021/04/23 08:06:13;;;;;;;4.10;3.60;;;;;;;;;;5090480;28;20878;-55
2021/04/23 08:08:39;;;;;;;7.80;3.50;;;;;;;;;;5091004;28;20455;-55
2021/04/23 08:11:05;;;;;;;6.00;3.67;;;;;;;;;;5090484;28;20514;-55
2021/04/23 08:13:31;;;;;;;7.30;4.80;;;;;;;;;;5090943;28;20479;-55
2021/04/23 08:15:57;;;;;;;6.80;4.03;;;;;;;;;;5089783;28;20396;-55
2021/04/23 08:18:24;;;;;;;5.53;3.87;;;;;;;;;;5090779;28;20423;-56
2021/04/23 08:20:50;;;;;;;8.80;4.50;;;;;;;;;;5090602;28;20451;-56
2021/04/23 08:23:16;;;;;;;12.63;3.97;;;;;;;;;;5090989;28;20473;-55
2021/04/23 08:25:42;;;;;;;6.30;3.40;;;;;;;;;;5090479;28;20478;-56
2021/04/23 08:28:08;;;;;;;4.90;3.63;;;;;;;;;;5090634;28;20396;-56
2021/04/23 08:30:35;;;;;;;14.03;4.30;;;;;;;;;;5090649;28;20419;-55
2021/04/23 08:33:01;;;;;;;5.30;3.60;;;;;;;;;;5090635;28;20374;-55
2021/04/23 08:35:27;;;;;;;4.60;3.87;;;;;;;;;;5090328;28;20435;-56
2021/04/23 08:37:53;;;;;;;5.07;4.00;;;;;;;;;;5090344;28;20366;-55
2021/04/23 08:40:20;;;;;;;5.60;3.93;;;;;;;;;;5090280;28;20470;-55
2021/04/23 08:42:46;;;;;;;5.47;4.23;;;;;;;;;;5090464;28;20370;-56
2021/04/23 08:45:14;;;;;;;14.47;4.70;;;;;;;;;;5090204;28;20377;-55
2021/04/23 08:47:41;;;;;;;10.37;3.90;;;;;;;;;;5090301;28;20396;-55
2021/04/23 08:50:09;;;;;;;9.50;4.90;;;;;;;;;;5090192;28;20394;-55
2021/04/23 08:52:35;;;;;;;7.33;4.30;;;;;;;;;;5089723;28;20382;-55
2021/04/23 08:55:02;;;;;;;6.17;4.40;;;;;;;;;;5103862;28;20777;-55
2021/04/23 08:57:28;;;;;;;5.63;3.50;;;;;;;;;;5088925;28;20771;-57
2021/04/23 08:59:54;;;;;;;7.80;3.47;;;;;;;;;;5089752;28;20465;-56
2021/04/23 09:02:20;;;;;;;5.27;3.70;;;;;;;;;;5090554;28;20406;-56
2021/04/23 09:04:46;;;;;;;5.80;3.60;;;;;;;;;;5090254;28;20404;-56
2021/04/23 09:07:12;;;;;;;7.37;3.90;;;;;;;;;;5089991;28;20450;-55
2021/04/23 09:09:42;;;;;;;6.47;3.80;;;;;;;;;;5090047;28;20420;-56
2021/04/23 09:12:19;;;;;;;5.50;3.10;;;;;;;;;;5093961;28;20448;-56
2021/04/23 09:14:45;;;;;;;4.70;3.10;;;;;;;;;;5093957;28;20486;-56
2021/04/23 09:17:11;;;;;;;12.60;3.40;;;;;;;;;;5093694;28;20400;-56
2021/04/23 09:19:37;;;;;;;5.27;3.37;;;;;;;;;;5093848;28;20495;-55
2021/04/23 09:22:08;;;;;;;6.87;3.70;;;;;;;;;;5093853;28;20427;-56
2021/04/23 09:24:44;;;;;;;9.87;4.70;;;;;;;;;;5094044;28;20840;-57
2021/04/23 09:27:10;;;;;;;7.23;3.70;;;;;;;;;;5093875;28;20414;-57
2021/04/23 09:29:37;;;;;;;4.50;3.83;;;;;;;;;;5092294;28;20427;-56
2021/04/23 09:32:13;;;;;;;7.97;3.13;;;;;;;;;;5093561;28;20895;-56
2021/04/23 09:34:49;;;;;;;9.40;3.90;;;;;;;;;;5093708;28;20413;-55
2021/04/23 09:37:16;;;;;;;3.67;3.30;;;;;;;;;;5092960;28;20399;-55
2021/04/23 09:39:42;;;;;;;4.17;3.63;;;;;;;;;;5093350;28;20411;-55
2021/04/23 09:42:11;;;;;;;6.13;3.50;;;;;;;;;;5093460;28;20411;-56
2021/04/23 09:44:38;;;;;;;6.47;3.63;;;;;;;;;;5093461;28;20413;-56
2021/04/23 09:47:04;;;;;;;4.90;4.30;;;;;;;;;;5093302;28;20411;-56
2021/04/23 09:49:30;;;;;;;6.03;3.90;;;;;;;;;;5093118;28;20422;-56
2021/04/23 09:51:57;;;;;;;8.83;4.67;;;;;;;;;;5092004;28;20410;-55
2021/04/23 09:54:24;;;;;;;7.93;3.37;;;;;;;;;;5092913;28;20395;-56
2021/04/23 09:56:50;;;;;;;7.67;3.90;;;;;;;;;;5093085;28;20426;-55
2021/04/23 09:59:17;;;;;;;6.47;3.57;;;;;;;;;;5092871;28;20443;-55
2021/04/23 10:01:53;;;;;;;6.70;4.00;;;;;;;;;;5093151;28;20828;-56
2021/04/23 10:04:20;;;;;;;4.20;3.80;;;;;;;;;;5093199;28;20396;-56
2021/04/23 10:06:46;;;;;;;3.80;3.40;;;;;;;;;;5092883;28;20445;-56
2021/04/23 10:09:12;;;;;;;5.10;3.77;;;;;;;;;;5092957;28;20955;-56
2021/04/23 10:11:42;;;;;;;6.63;3.40;;;;;;;;;;5093112;28;21080;-56
2021/04/23 10:14:13;;;;;;;4.50;3.70;;;;;;;;;;5092842;28;20888;-55
2021/04/23 10:16:40;;;;;;;6.23;3.80;;;;;;;;;;5092924;28;20408;-56
2021/04/23 10:19:06;;;;;;;8.27;3.77;;;;;;;;;;5092939;28;20478;-56
2021/04/23 10:21:32;;;;;;;4.13;3.63;;;;;;;;;;5092269;28;20450;-55
2021/04/23 10:23:59;;;;;;;5.27;3.60;;;;;;;;;;5092545;28;20396;-56
2021/04/23 10:26:26;;;;;;;13.00;4.17;;;;;;;;;;5092523;28;20406;-55
2021/04/23 10:28:53;;;;;;;9.40;4.40;;;;;;;;;;5092770;28;20392;-55
2021/04/23 10:31:19;;;;;;;6.40;4.10;;;;;;;;;;5092733;28;20430;-56
2021/04/23 10:33:45;;;;;;;7.30;4.00;;;;;;;;;;5092916;28;20403;-56
2021/04/23 10:36:12;;;;;;;6.53;4.03;;;;;;;;;;5092548;28;20407;-56
2021/04/23 10:38:40;;;;;;;8.00;4.53;;;;;;;;;;5092751;28;20399;-55
2021/04/23 10:41:07;;;;;;;6.50;3.83;;;;;;;;;;5092417;28;20483;-56
2021/04/23 10:43:34;;;;;;;4.93;4.00;;;;;;;;;;5091456;28;20411;-55
2021/04/23 10:46:12;;;;;;;13.20;5.10;;;;;;;;;;5091217;28;20453;-55
2021/04/23 10:48:39;;;;;;;5.63;3.80;;;;;;;;;;5092354;28;20472;-56
2021/04/23 10:51:10;;;;;;;7.13;4.17;;;;;;;;;;5092086;28;20415;-55
2021/04/23 10:53:44;;;;;;;8.63;4.63;;;;;;;;;;5091955;28;20495;-55
2021/04/23 10:56:30;;;;;;;5.53;3.47;;;;;;;;;;5092300;28;20407;-54
2021/04/23 10:58:57;;;;;;;5.10;4.03;;;;;;;;;;5091405;28;20923;-56
2021/04/23 11:01:25;;;;;;;7.97;4.80;;;;;;;;;;5091027;28;20483;-54
2021/04/23 11:04:04;;;;;;;6.43;3.93;;;;;;;;;;5090833;28;20403;-54
2021/04/23 11:06:34;;;;;;;8.70;4.53;;;;;;;;;;5090660;28;20396;-56
2021/04/23 11:09:00;;;;;;;5.00;3.63;;;;;;;;;;5090782;28;20418;-55
2021/04/23 11:11:27;;;;;;;9.80;3.87;;;;;;;;;;5090999;28;20403;-55
2021/04/23 11:13:53;;;;;;;8.33;4.27;;;;;;;;;;5090716;28;20875;-53
2021/04/23 11:16:20;;;;;;;6.20;4.13;;;;;;;;;;5090528;28;20431;-53
2021/04/23 11:18:54;;;;;;;4.80;3.40;;;;;;;;;;5090717;28;20404;-56
2021/04/23 11:21:36;;;;;;;5.27;3.40;;;;;;;;;;5090707;28;20458;-53
2021/04/23 11:24:21;;;;;;;4.37;3.97;;;;;;;;;;5090626;28;20398;-55
2021/04/23 11:27:07;;;;;;;4.47;4.03;;;;;;;;;;5090080;28;20403;-54
2021/04/23 11:29:54;;;;;;;7.17;3.80;;;;;;;;;;5090210;28;20424;-54
2021/04/23 11:32:20;;;;;;;7.60;4.17;;;;;;;;;;5089271;28;20837;-53
2021/04/23 11:34:56;;;;;;;6.30;4.17;;;;;;;;;;5090119;28;20399;-54
2021/04/23 11:37:48;;;;;;;4.87;3.67;;;;;;;;;;5090088;28;20854;-56
2021/04/23 11:40:24;;;;;;;8.40;4.47;;;;;;;;;;5085809;28;20467;-56
2021/04/23 11:42:54;;;;;;;5.67;3.70;;;;;;;;;;5089516;28;20866;-56
2021/04/23 11:45:22;;;;;;;6.30;3.93;;;;;;;;;;5089558;28;20402;-56
2021/04/23 11:47:58;;;;;;;8.67;4.50;;;;;;;;;;5089495;28;20402;-57
2021/04/23 11:50:32;;;;;;;5.13;4.40;;;;;;;;;;5090299;28;20419;-55
2021/04/23 11:52:59;;;;;;;6.60;4.57;;;;;;;;;;5090200;28;20415;-53
2021/04/23 11:55:30;;;;;;;8.20;4.60;;;;;;;;;;5090057;28;20402;-53
2021/04/23 11:58:06;;;;;;;6.83;4.47;;;;;;;;;;5090156;28;20486;-54
2021/04/23 12:00:33;;;;;;;7.87;4.90;;;;;;;;;;5071549;28;545172;-53
2021/04/23 12:03:06;;;;;;;6.77;4.50;;;;;;;;;;5090927;28;20498;-55
2021/04/23 12:05:32;;;;;;;6.20;4.00;;;;;;;;;;5090835;28;20388;-53
2021/04/23 12:08:00;;;;;;;5.90;4.37;;;;;;;;;;5090890;28;20522;-52
2021/04/23 12:10:26;;;;;;;7.00;4.07;;;;;;;;;;5090930;28;20493;-53
2021/04/23 12:12:53;;;;;;;8.63;4.23;;;;;;;;;;5090632;28;20399;-53
2021/04/23 12:15:39;;;;;;;7.23;4.47;;;;;;;;;;5090900;28;20407;-53
2021/04/23 12:18:06;;;;;;;6.63;4.60;;;;;;;;;;5090651;28;20437;-53
2021/04/23 12:20:36;;;;;;;8.17;4.07;;;;;;;;;;5090859;28;20455;-53
2021/04/23 12:23:03;;;;;;;6.00;5.07;;;;;;;;;;5090838;28;20400;-53
2021/04/23 12:25:31;;;;;;;7.57;3.87;;;;;;;;;;5090920;28;20399;-53
2021/04/23 12:28:15;;;;;;;7.77;4.60;;;;;;;;;;5090904;28;20975;-53
2021/04/23 12:30:41;;;;;;;6.20;4.10;;;;;;;;;;5090512;28;20461;-56
2021/04/23 12:33:07;;;;;;;11.53;4.50;;;;;;;;;;5090690;28;20460;-56
2021/04/23 12:35:39;;;;;;;10.40;5.00;;;;;;;;;;5089067;28;20400;-56
2021/04/23 12:38:07;;;;;;;10.30;5.70;;;;;;;;;;5090688;28;20411;-53
2021/04/23 12:40:42;;;;;;;4.83;4.30;;;;;;;;;;5090280;28;20939;-53
2021/04/23 12:43:26;;;;;;;7.33;5.23;;;;;;;;;;5090535;28;20402;-56
2021/04/23 12:45:53;;;;;;;4.70;4.00;;;;;;;;;;5091657;28;20399;-56
2021/04/23 12:48:20;;;;;;;7.60;4.47;;;;;;;;;;5094574;28;20403;-53
2021/04/23 12:50:47;;;;;;;5.43;4.00;;;;;;;;;;5076102;28;20516;-55
2021/04/23 12:53:14;;;;;;;9.50;4.60;;;;;;;;;;5094486;28;20442;-53
2021/04/23 12:55:41;;;;;;;6.30;5.10;;;;;;;;;;5094405;28;20913;-54
2021/04/23 12:58:07;;;;;;;4.60;4.27;;;;;;;;;;5094302;28;20410;-55
2021/04/23 13:00:34;;;;;;;7.17;4.47;;;;;;;;;;5092955;28;20520;-54
2021/04/23 13:03:01;;;;;;;6.80;4.43;;;;;;;;;;5094343;28;20407;-53
2021/04/23 13:05:27;;;;;;;7.27;4.50;;;;;;;;;;5093927;28;20845;-55
2021/04/23 13:07:55;;;;;;;9.37;5.20;;;;;;;;;;5093791;28;20407;-54
2021/04/23 13:10:40;;;;;;;5.23;4.50;;;;;;;;;;5093737;28;20560;-53
2021/04/23 13:13:11;;;;;;;5.93;4.00;;;;;;;;;;5093866;28;20830;-55
2021/04/23 13:15:41;;;;;;;7.17;5.03;;;;;;;;;;5093692;28;20915;-56
2021/04/23 13:18:18;;;;;;;8.77;5.20;;;;;;;;;;5093752;28;20395;-55
2021/04/23 13:20:49;;;;;;;5.27;4.77;;;;;;;;;;5093731;28;20455;-53
2021/04/23 13:23:15;;;;;;;6.00;4.87;;;;;;;;;;5093638;28;20457;-53
2021/04/23 13:25:45;;;;;;;8.27;5.10;;;;;;;;;;5093395;28;20934;-54
2021/04/23 13:28:14;;;;;;;8.67;4.10;;;;;;;;;;5093614;28;20806;-53
2021/04/23 13:30:43;;;;;;;6.70;4.90;;;;;;;;;;5093974;28;20451;-55
2021/04/23 13:33:11;;;;;;;8.07;4.73;;;;;;;;;;5093611;28;20407;-54
2021/04/23 13:35:37;;;;;;;5.63;4.57;;;;;;;;;;5093299;28;20486;-53
2021/04/23 13:38:18;;;;;;;10.53;5.07;;;;;;;;;;5093489;28;20438;-53
2021/04/23 13:40:44;;;;;;;7.10;5.10;;;;;;;;;;5092331;28;20450;-53
2021/04/23 13:43:11;;;;;;;5.50;4.80;;;;;;;;;;5093480;28;20412;-55
2021/04/23 13:45:38;;;;;;;11.07;4.60;;;;;;;;;;5092918;28;20427;-53
2021/04/23 13:48:20;;;;;;;11.63;4.37;;;;;;;;;;5093353;28;20948;-53
2021/04/23 13:50:46;;;;;;;13.43;4.97;;;;;;;;;;5093072;28;20450;-53
2021/04/23 13:53:12;;;;;;;6.73;3.80;;;;;;;;;;5093085;28;20767;-53
2021/04/23 13:55:39;;;;;;;8.17;4.70;;;;;;;;;;5092602;28;20982;-53
2021/04/23 13:58:06;;;;;;;5.17;4.13;;;;;;;;;;5074695;28;20400;-55
2021/04/23 14:00:51;;;;;;;6.93;5.13;;;;;;;;;;5091871;28;20466;-53
2021/04/23 14:03:17;;;;;;;5.70;4.30;;;;;;;;;;5092951;28;20404;-56
2021/04/23 14:05:43;;;;;;;4.50;4.10;;;;;;;;;;5092526;28;20399;-53
2021/04/23 14:08:09;;;;;;;8.70;4.73;;;;;;;;;;5092811;28;20441;-53
2021/04/23 14:10:39;;;;;;;5.77;4.30;;;;;;;;;;5092693;28;20802;-53
2021/04/23 14:13:05;;;;;;;9.47;5.57;;;;;;;;;;5093089;28;20400;-53
2021/04/23 14:15:31;;;;;;;9.60;5.00;;;;;;;;;;5092771;28;21050;-53
2021/04/23 14:17:57;;;;;;;11.00;4.83;;;;;;;;;;5092492;28;20490;-53
2021/04/23 14:20:23;;;;;;;7.87;5.27;;;;;;;;;;5092729;28;20553;-53
2021/04/23 14:22:50;;;;;;;5.17;4.23;;;;;;;;;;5091990;28;20396;-53
2021/04/23 14:25:16;;;;;;;7.30;4.37;;;;;;;;;;5092202;28;20913;-55
2021/04/23 14:27:42;;;;;;;6.60;4.40;;;;;;;;;;5092497;28;20944;-53
2021/04/23 14:30:09;;;;;;;8.33;3.97;;;;;;;;;;5092174;28;20426;-53
2021/04/23 14:32:34;;;;;;;8.13;5.50;;;;;;;;;;5092407;28;20410;-57
2021/04/23 14:35:00;;;;;;;7.97;4.60;;;;;;;;;;5092169;28;20408;-59
2021/04/23 14:37:26;;;;;;;8.43;4.80;;;;;;;;;;5092355;28;20446;-53
2021/04/23 14:39:52;;;;;;;5.17;4.67;;;;;;;;;;5091949;28;20909;-53